createdAt,value
2023-02-24T00:02:01.024Z,100735.66
2023-02-24T00:04:30.156Z,100736.72
2023-02-24T00:06:56.690Z,100743.03
2023-02-24T00:09:26.137Z,100737.38
2023-02-24T00:11:57.106Z,100735.81
2023-02-24T00:14:26.710Z,100734.19
2023-02-24T00:16:53.433Z,100728.19
2023-02-24T00:19:23.518Z,100725.38
2023-02-24T00:21:51.480Z,100723.78
2023-02-24T00:24:18.010Z,100723.09
2023-02-24T00:26:45.725Z,100721.53
2023-02-24T00:29:13.495Z,100718.22
2023-02-24T00:31:42.842Z,100720.25
2023-02-24T00:34:12.623Z,100721.06
2023-02-24T00:36:39.425Z,100716.75
2023-02-24T00:39:11.460Z,100705.09
2023-02-24T00:41:41.747Z,100704.63
2023-02-24T00:44:13.412Z,100699.88
2023-02-24T00:46:44.618Z,100698.16
2023-02-24T00:49:19.598Z,100690.56
2023-02-24T00:51:48.814Z,100695.78
2023-02-24T00:54:16.875Z,100687.25
2023-02-24T00:56:45.238Z,100681.25
2023-02-24T00:59:13.051Z,100674.13
2023-02-24T01:01:40.286Z,100678.88
2023-02-24T01:04:11.469Z,100670.84
2023-02-24T01:06:47.570Z,100675.25
2023-02-24T01:09:20.342Z,100671.63
2023-02-24T01:12:07.479Z,100670.03
2023-02-24T01:14:35.922Z,100669.25
2023-02-24T01:17:03.754Z,100662.78
2023-02-24T01:19:32.290Z,100659.63
2023-02-24T01:22:07.328Z,100662.00
2023-02-24T01:24:37.950Z,100655.19
2023-02-24T01:27:06.779Z,100656.00
2023-02-24T01:29:39.629Z,100650.78
2023-02-24T01:32:13.023Z,100652.81
2023-02-24T01:34:42.412Z,100641.59
2023-02-24T01:37:09.670Z,100649.97
2023-02-24T01:39:36.330Z,100641.94
2023-02-24T01:42:04.898Z,100637.06
2023-02-24T01:44:32.655Z,100626.50
2023-02-24T01:47:03.861Z,100618.59
2023-02-24T01:49:38.455Z,100617.66
2023-02-24T01:52:19.643Z,100604.72
2023-02-24T01:54:48.716Z,100601.13
2023-02-24T01:57:20.955Z,100594.63
2023-02-24T01:59:50.950Z,100592.84
2023-02-24T02:02:19.261Z,100600.44
2023-02-24T02:05:01.856Z,100594.63
2023-02-24T02:07:29.730Z,100592.38
2023-02-24T02:10:00.315Z,100578.22
2023-02-24T02:12:28.338Z,100578.22
2023-02-24T02:14:58.202Z,100570.16
2023-02-24T02:17:40.874Z,100573.47
2023-02-24T02:20:16.602Z,100578.22
2023-02-24T02:23:16.965Z,100569.38
2023-02-24T02:26:24.791Z,100561.34
2023-02-24T02:29:19.770Z,100551.69
2023-02-24T02:32:08.876Z,100552.50
2023-02-24T02:34:57.447Z,100544.47
2023-02-24T02:37:34.218Z,100539.56
2023-02-24T02:40:19.947Z,100536.72
2023-02-24T02:43:14.098Z,100545.25
2023-02-24T02:45:48.090Z,100538.44
2023-02-24T02:48:20.231Z,100527.44
2023-02-24T02:50:54.806Z,100522.84
2023-02-24T02:53:59.237Z,100527.59
2023-02-24T02:56:31.947Z,100527.09
2023-02-24T02:59:00.594Z,100521.09
2023-02-24T03:01:35.766Z,100509.75
2023-02-24T03:04:06.375Z,100505.69
2023-02-24T03:06:47.481Z,100502.53
2023-02-24T03:09:20.865Z,100487.09
2023-02-24T03:11:53.732Z,100488.34
2023-02-24T03:14:24.574Z,100490.84
2023-02-24T03:16:53.901Z,100488.34
2023-02-24T03:19:28.201Z,100485.97
2023-02-24T03:22:06.073Z,100473.06
2023-02-24T03:24:32.652Z,100462.94
2023-02-24T03:27:13.057Z,100471.00
2023-02-24T03:29:49.723Z,100457.75
2023-02-24T03:32:36.577Z,100460.56
2023-02-24T03:35:16.897Z,100452.22
2023-02-24T03:37:47.060Z,100449.25
2023-02-24T03:40:14.881Z,100446.41
2023-02-24T03:42:48.335Z,100438.81
2023-02-24T03:45:16.415Z,100425.59
2023-02-24T03:47:45.491Z,100437.91
2023-02-24T03:50:15.240Z,100430.66
2023-02-24T03:53:09.787Z,100422.63
2023-02-24T03:55:42.619Z,100427.47
2023-02-24T03:58:36.429Z,100417.88
2023-02-24T04:01:25.374Z,100422.78
2023-02-24T04:04:18.117Z,100413.13
2023-02-24T04:07:00.289Z,100409.97
2023-02-24T04:09:57.096Z,100402.88
2023-02-24T04:12:32.199Z,100401.13
2023-02-24T04:15:15.289Z,100397.84
2023-02-24T04:17:53.796Z,100390.91
2023-02-24T04:20:24.706Z,100388.56
2023-02-24T04:23:01.942Z,100372.94
2023-02-24T04:25:31.004Z,100372.31
2023-02-24T04:28:01.141Z,100369.19
2023-02-24T04:30:33.239Z,100360.03
2023-02-24T04:32:59.976Z,100359.44
2023-02-24T04:35:27.802Z,100359.09
2023-02-24T04:37:56.366Z,100353.41
2023-02-24T04:40:24.110Z,100344.44
2023-02-24T04:42:52.358Z,100339.59
2023-02-24T04:45:24.484Z,100315.00
2023-02-24T04:47:56.052Z,100327.44
2023-02-24T04:50:25.160Z,100321.78
2023-02-24T04:52:57.339Z,100299.72
2023-02-24T04:55:26.471Z,100305.69
2023-02-24T04:57:53.166Z,100284.63
2023-02-24T05:00:23.191Z,100301.63
2023-02-24T05:02:50.599Z,100293.13
2023-02-24T05:05:28.329Z,100281.00
2023-02-24T05:08:03.365Z,100281.47
2023-02-24T05:10:38.953Z,100271.53
2023-02-24T05:13:09.390Z,100269.47
2023-02-24T05:15:40.571Z,100253.59
2023-02-24T05:18:09.334Z,100250.09
2023-02-24T05:21:01.668Z,100249.16
2023-02-24T05:23:31.837Z,100239.69
2023-02-24T05:25:58.736Z,100228.38
2023-02-24T05:28:25.878Z,100229.16
2023-02-24T05:30:56.363Z,100227.44
2023-02-24T05:33:22.874Z,100221.78
2023-02-24T05:35:51.018Z,100214.53
2023-02-24T05:38:19.709Z,100210.13
2023-02-24T05:40:49.785Z,100210.13
2023-02-24T05:43:19.128Z,100202.09
2023-02-24T05:45:46.357Z,100186.34
2023-02-24T05:48:16.842Z,100191.88
2023-02-24T05:50:52.176Z,100201.63
2023-02-24T05:53:19.085Z,100192.34
2023-02-24T05:55:45.564Z,100181.47
2023-02-24T05:58:12.167Z,100169.66
2023-02-24T06:00:39.732Z,100162.09
2023-02-24T06:03:09.344Z,100171.22
2023-02-24T06:05:39.582Z,100170.44
2023-02-24T06:08:06.250Z,100149.34
2023-02-24T06:10:34.338Z,100161.19
2023-02-24T06:13:02.250Z,100157.22
2023-02-24T06:15:29.534Z,100149.84
2023-02-24T06:17:56.615Z,100144.63
2023-02-24T06:20:26.661Z,100131.25
2023-02-24T06:22:55.771Z,100125.75
2023-02-24T06:25:24.967Z,100121.00
2023-02-24T06:27:54.573Z,100130.47
2023-02-24T06:30:24.518Z,100125.75
2023-02-24T06:32:51.816Z,100140.69
2023-02-24T06:35:19.470Z,100124.97
2023-02-24T06:37:46.582Z,100122.59
2023-02-24T06:40:16.371Z,100112.19
2023-02-24T06:42:57.013Z,100121.00
2023-02-24T06:45:24.308Z,100108.09
2023-02-24T06:47:50.776Z,100104.94
2023-02-24T06:50:20.126Z,100105.72
2023-02-24T06:52:50.237Z,100101.66
2023-02-24T06:55:26.285Z,100091.09
2023-02-24T06:57:58.344Z,100090.47
2023-02-24T07:00:36.915Z,100084.81
2023-02-24T07:03:14.715Z,100080.69
2023-02-24T07:05:54.268Z,100083.53
2023-02-24T07:08:23.009Z,100081.03
2023-02-24T07:10:55.872Z,100083.06
2023-02-24T07:13:24.728Z,100072.53
2023-02-24T07:15:51.830Z,100074.56
2023-02-24T07:18:19.372Z,100062.94
2023-02-24T07:20:46.650Z,100071.72
2023-02-24T07:23:15.036Z,100068.13
2023-02-24T07:25:43.283Z,100047.16
2023-02-24T07:28:10.953Z,100066.06
2023-02-24T07:30:40.557Z,100050.66
2023-02-24T07:33:08.240Z,100045.63
2023-02-24T07:35:41.434Z,100031.63
2023-02-24T07:38:08.112Z,100041.03
2023-02-24T07:40:36.267Z,100038.22
2023-02-24T07:43:06.319Z,100030.81
2023-02-24T07:45:33.286Z,100034.59
2023-02-24T07:48:01.674Z,100021.22
2023-02-24T07:50:32.531Z,100015.72
2023-02-24T07:52:59.599Z,100016.81
2023-02-24T07:55:31.092Z,100003.28
2023-02-24T07:57:57.893Z,100004.69
2023-02-24T08:00:28.192Z,100009.09
2023-02-24T08:02:56.629Z,99996.66
2023-02-24T08:05:24.483Z,99988.78
2023-02-24T08:07:52.016Z,99977.81
2023-02-24T08:10:25.631Z,99984.09
2023-02-24T08:12:55.676Z,99980.00
2023-02-24T08:15:25.037Z,99967.09
2023-02-24T08:17:53.651Z,99964.25
2023-02-24T08:20:21.991Z,99962.66
2023-02-24T08:22:53.985Z,99967.88
2023-02-24T08:25:24.231Z,99964.25
2023-02-24T08:28:08.954Z,99965.50
2023-02-24T08:30:38.846Z,99953.69
2023-02-24T08:33:08.136Z,99953.69
2023-02-24T08:35:37.499Z,99944.75
2023-02-24T08:38:16.792Z,99944.91
2023-02-24T08:40:50.839Z,99936.41
2023-02-24T08:43:28.813Z,99929.78
2023-02-24T08:46:00.831Z,99930.59
2023-02-24T08:48:42.116Z,99926.47
2023-02-24T08:51:14.946Z,99917.50
2023-02-24T08:53:53.125Z,99905.09
2023-02-24T08:56:24.541Z,99906.19
2023-02-24T08:59:05.209Z,99891.56
2023-02-24T09:01:35.194Z,99895.31
2023-02-24T09:04:13.061Z,99886.53
2023-02-24T09:06:51.242Z,99890.94
2023-02-24T09:09:21.341Z,99879.28
2023-02-24T09:11:57.040Z,99863.56
2023-02-24T09:14:38.304Z,99864.34
2023-02-24T09:17:10.887Z,99857.56
2023-02-24T09:19:51.996Z,99847.81
2023-02-24T09:22:32.419Z,99840.09
2023-02-24T09:25:17.810Z,99832.88
2023-02-24T09:27:52.694Z,99815.91
2023-02-24T09:30:37.001Z,99804.22
2023-02-24T09:33:17.864Z,99802.81
2023-02-24T09:36:20.436Z,99804.41
2023-02-24T09:38:59.281Z,99800.81
2023-02-24T09:42:02.549Z,99801.25
2023-02-24T09:44:35.652Z,99785.03
2023-02-24T09:47:15.963Z,99785.50
2023-02-24T09:49:49.125Z,99776.69
2023-02-24T09:52:18.880Z,99781.41
2023-02-24T09:55:14.669Z,99763.03
2023-02-24T09:58:09.366Z,99772.47
2023-02-24T10:00:43.995Z,99764.44
2023-02-24T10:03:41.382Z,99765.06
2023-02-24T10:06:21.436Z,99761.59
2023-02-24T10:08:54.419Z,99751.84
2023-02-24T10:11:33.053Z,99734.72
2023-02-24T10:14:06.231Z,99737.69
2023-02-24T10:16:44.276Z,99727.47
2023-02-24T10:19:23.499Z,99733.75
2023-02-24T10:22:28.118Z,99736.13
2023-02-24T10:25:10.885Z,99740.19
2023-02-24T10:27:52.899Z,99729.53
2023-02-24T10:30:40.727Z,99707.34
2023-02-24T10:33:38.969Z,99726.38
2023-02-24T10:36:11.186Z,99716.63
2023-02-24T10:38:40.980Z,99718.22
2023-02-24T10:41:10.245Z,99717.72
2023-02-24T10:43:45.477Z,99706.56
2023-02-24T10:46:40.952Z,99701.22
2023-02-24T10:49:11.754Z,99687.53
2023-02-24T10:51:41.960Z,99688.94
2023-02-24T10:54:39.608Z,99681.69
2023-02-24T10:57:15.257Z,99688.94
2023-02-24T11:00:18.619Z,99660.00
2023-02-24T11:03:06.889Z,99645.38
2023-02-24T11:05:44.288Z,99654.97
2023-02-24T11:08:36.384Z,99659.03
2023-02-24T11:11:31.105Z,99642.53
2023-02-24T11:14:17.743Z,99644.25
2023-02-24T11:17:07.145Z,99637.97
2023-02-24T11:19:49.511Z,99635.75
2023-02-24T11:22:27.771Z,99638.16
2023-02-24T11:24:54.278Z,99626.34
2023-02-24T11:27:23.294Z,99617.84
2023-02-24T11:30:14.986Z,99612.47
2023-02-24T11:32:58.481Z,99612.00
2023-02-24T11:35:37.849Z,99604.00
2023-02-24T11:38:27.642Z,99596.75
2023-02-24T11:41:21.736Z,99606.34
2023-02-24T11:44:16.770Z,99617.19
2023-02-24T11:46:57.629Z,99601.44
2023-02-24T11:49:41.234Z,99587.00
2023-02-24T11:52:33.358Z,99570.97
2023-02-24T11:55:03.668Z,99577.06
2023-02-24T11:57:39.291Z,99578.63
2023-02-24T12:00:20.077Z,99578.63
2023-02-24T12:02:59.337Z,99564.44
2023-02-24T12:05:34.879Z,99548.75
2023-02-24T12:08:20.058Z,99555.19
2023-02-24T12:10:52.393Z,99548.75
2023-02-24T12:13:37.112Z,99542.13
2023-02-24T12:16:10.908Z,99532.81
2023-02-24T12:18:41.008Z,99523.56
2023-02-24T12:21:17.899Z,99526.69
2023-02-24T12:23:46.608Z,99521.19
2023-02-24T12:26:42.568Z,99523.56
2023-02-24T12:29:48.428Z,99502.16
2023-02-24T12:32:41.329Z,99504.41
2023-02-24T12:35:32.528Z,99500.13
2023-02-24T12:38:36.555Z,99499.03
2023-02-24T12:41:39.719Z,99491.63
2023-02-24T12:44:22.690Z,99484.09
2023-02-24T12:46:59.833Z,99485.66
2023-02-24T12:49:58.802Z,99492.41
2023-02-24T12:52:51.383Z,99488.78
2023-02-24T12:55:39.588Z,99482.66
2023-02-24T12:58:26.596Z,99463.00
2023-02-24T13:01:21.571Z,99462.34
2023-02-24T13:04:03.928Z,99461.88
2023-02-24T13:06:31.218Z,99456.97
2023-02-24T13:09:12.860Z,99451.59
2023-02-24T13:12:03.079Z,99440.28
2023-02-24T13:14:34.019Z,99440.56
2023-02-24T13:17:33.063Z,99431.78
2023-02-24T13:20:10.922Z,99427.97
2023-02-24T13:22:41.984Z,99418.59
2023-02-24T13:25:08.413Z,99422.13
2023-02-24T13:27:37.312Z,99412.84
2023-02-24T13:30:26.143Z,99421.34
2023-02-24T13:33:00.344Z,99421.63
2023-02-24T13:35:26.732Z,99428.88
2023-02-24T13:37:54.182Z,99402.78
2023-02-24T13:40:22.300Z,99409.31
2023-02-24T13:43:01.050Z,99396.41
2023-02-24T13:45:29.200Z,99399.56
2023-02-24T13:48:26.007Z,99393.91
2023-02-24T13:51:24.744Z,99387.75
2023-02-24T13:54:12.993Z,99388.53
2023-02-24T13:57:20.873Z,99385.69
2023-02-24T14:00:12.034Z,99370.28
2023-02-24T14:02:43.904Z,99357.38
2023-02-24T14:05:19.443Z,99361.47
2023-02-24T14:07:49.930Z,99356.69
2023-02-24T14:10:20.356Z,99358.25
2023-02-24T14:12:49.409Z,99359.81
2023-02-24T14:15:20.537Z,99350.81
2023-02-24T14:17:59.633Z,99345.16
2023-02-24T14:20:28.095Z,99335.88
2023-02-24T14:22:58.743Z,99344.97
2023-02-24T14:25:29.613Z,99334.34
2023-02-24T14:27:57.424Z,99330.00
2023-02-24T14:30:38.004Z,99336.75
2023-02-24T14:33:07.095Z,99326.19
2023-02-24T14:35:41.951Z,99328.53
2023-02-24T14:38:31.916Z,99317.91
2023-02-24T14:40:58.463Z,99302.16
2023-02-24T14:43:25.281Z,99305.88
2023-02-24T14:45:53.150Z,99303.34
2023-02-24T14:48:28.232Z,99304.13
2023-02-24T14:51:05.280Z,99298.44
2023-02-24T14:53:36.980Z,99295.91
2023-02-24T14:56:06.194Z,99291.53
2023-02-24T14:58:46.862Z,99288.38
2023-02-24T15:01:21.280Z,99291.53
2023-02-24T15:03:53.310Z,99292.59
2023-02-24T15:06:26.662Z,99271.16
2023-02-24T15:09:10.631Z,99279.41
2023-02-24T15:11:37.235Z,99273.25
2023-02-24T15:14:07.548Z,99271.47
2023-02-24T15:16:40.640Z,99260.63
2023-02-24T15:19:36.961Z,99262.97
2023-02-24T15:22:24.551Z,99260.44
2023-02-24T15:24:55.705Z,99255.75
2023-02-24T15:27:25.928Z,99247.84
2023-02-24T15:30:02.288Z,99253.50
2023-02-24T15:32:31.805Z,99255.84
2023-02-24T15:34:58.799Z,99253.78
2023-02-24T15:37:37.478Z,99244.00
2023-02-24T15:40:16.388Z,99230.63
2023-02-24T15:42:56.352Z,99225.44
2023-02-24T15:45:33.098Z,99217.50
2023-02-24T15:48:03.571Z,99221.91
2023-02-24T15:50:31.877Z,99214.97
2023-02-24T15:53:00.465Z,99212.13
2023-02-24T15:55:28.634Z,99211.66
2023-02-24T15:58:01.473Z,99206.75
2023-02-24T16:00:28.347Z,99209.59
2023-02-24T16:02:54.870Z,99205.47
2023-02-24T16:05:21.325Z,99196.66
2023-02-24T16:07:48.979Z,99191.81
2023-02-24T16:10:26.426Z,99201.66
2023-02-24T16:12:59.666Z,99193.94
2023-02-24T16:15:37.819Z,99193.16
2023-02-24T16:18:06.572Z,99194.69
2023-02-24T16:20:34.248Z,99187.50
2023-02-24T16:23:03.422Z,99181.81
2023-02-24T16:25:36.105Z,99195.78
2023-02-24T16:28:02.551Z,99190.09
2023-02-24T16:30:30.523Z,99192.94
2023-02-24T16:32:58.299Z,99187.53
2023-02-24T16:35:26.000Z,99190.88
2023-02-24T16:37:52.643Z,99183.34
2023-02-24T16:40:23.723Z,99181.38
2023-02-24T16:42:53.726Z,99182.38
2023-02-24T16:45:21.440Z,99187.06
2023-02-24T16:47:49.753Z,99182.16
2023-02-24T16:50:23.786Z,99191.16
2023-02-24T16:52:50.235Z,99193.44
2023-02-24T16:55:17.975Z,99197.84
2023-02-24T16:57:44.503Z,99196.28
2023-02-24T17:00:13.207Z,99193.72
2023-02-24T17:02:41.883Z,99199.09
2023-02-24T17:05:16.401Z,99205.53
2023-02-24T17:07:42.829Z,99198.59
2023-02-24T17:10:09.713Z,99196.53
2023-02-24T17:12:36.163Z,99190.38
2023-02-24T17:15:02.857Z,99197.03
2023-02-24T17:17:29.287Z,99198.81
2023-02-24T17:19:55.729Z,99203.50
2023-02-24T17:22:22.497Z,99203.50
2023-02-24T17:24:49.017Z,99209.19
2023-02-24T17:27:15.419Z,99199.09
2023-02-24T17:29:41.848Z,99198.53
2023-02-24T17:32:08.464Z,99200.69
2023-02-24T17:34:35.386Z,99206.03
2023-02-24T17:37:01.785Z,99215.34
2023-02-24T17:39:28.544Z,99206.03
2023-02-24T17:41:55.428Z,99203.69
2023-02-24T17:44:22.344Z,99207.59
2023-02-24T17:46:49.408Z,99206.03
2023-02-24T17:49:15.841Z,99201.16
2023-02-24T17:51:42.268Z,99197.53
2023-02-24T17:54:08.917Z,99204.50
2023-02-24T17:56:35.372Z,99203.19
2023-02-24T17:59:11.868Z,99211.69
2023-02-24T18:01:38.534Z,99194.69
2023-02-24T18:04:04.906Z,99196.47
2023-02-24T18:06:31.400Z,99202.94
2023-02-24T18:08:57.828Z,99194.69
2023-02-24T18:11:24.256Z,99202.16
2023-02-24T18:13:50.877Z,99197.53
2023-02-24T18:16:17.452Z,99198.81
2023-02-24T18:18:44.015Z,99194.69
2023-02-24T18:21:10.520Z,99192.84
2023-02-24T18:23:40.150Z,99193.16
2023-02-24T18:26:08.259Z,99186.41
2023-02-24T18:28:34.747Z,99194.41
2023-02-24T18:31:03.071Z,99177.91
2023-02-24T18:33:29.837Z,99190.00
2023-02-24T18:35:58.411Z,99182.22
2023-02-24T18:38:25.102Z,99192.56
2023-02-24T18:41:06.180Z,99193.06
2023-02-24T18:43:35.550Z,99199.50
2023-02-24T18:46:05.331Z,99193.56
2023-02-24T18:48:32.977Z,99197.97
2023-02-24T18:51:00.749Z,99199.22
2023-02-24T18:53:30.089Z,99194.81
2023-02-24T18:56:01.750Z,99200.22
2023-02-24T18:58:29.917Z,99194.53
2023-02-24T19:00:56.406Z,99194.53
2023-02-24T19:03:23.179Z,99199.44
2023-02-24T19:05:50.247Z,99187.84
2023-02-24T19:08:17.049Z,99195.53
2023-02-24T19:10:43.691Z,99186.75
2023-02-24T19:13:11.471Z,99189.09
2023-02-24T19:15:39.487Z,99188.31
2023-02-24T19:18:06.656Z,99183.91
2023-02-24T19:20:33.104Z,99194.66
2023-02-24T19:22:59.637Z,99187.25
2023-02-24T19:25:26.148Z,99189.00
2023-02-24T19:27:53.642Z,99195.97
2023-02-24T19:30:20.163Z,99187.19
2023-02-24T19:32:46.953Z,99191.28
2023-02-24T19:35:13.623Z,99200.06
2023-02-24T19:37:40.110Z,99196.94
2023-02-24T19:40:07.347Z,99193.63
2023-02-24T19:42:33.858Z,99186.38
2023-02-24T19:45:00.319Z,99201.03
2023-02-24T19:47:26.769Z,99187.28
2023-02-24T19:49:53.202Z,99200.75
2023-02-24T19:52:19.627Z,99199.50
2023-02-24T19:54:46.095Z,99194.50
2023-02-24T19:57:12.549Z,99199.50
2023-02-24T19:59:39.497Z,99197.94
2023-02-24T20:02:06.073Z,99196.84
2023-02-24T20:04:32.797Z,99192.75
2023-02-24T20:06:59.332Z,99202.03
2023-02-24T20:09:26.931Z,99193.53
2023-02-24T20:11:54.648Z,99195.09
2023-02-24T20:14:21.170Z,99188.34
2023-02-24T20:16:47.981Z,99200.75
2023-02-24T20:19:15.261Z,99190.41
2023-02-24T20:21:42.153Z,99197.94
2023-02-24T20:24:13.414Z,99195.84
2023-02-24T20:26:42.044Z,99189.44
2023-02-24T20:29:09.340Z,99204.84
2023-02-24T20:31:36.152Z,99195.78
2023-02-24T20:34:04.638Z,99187.00
2023-02-24T20:36:31.073Z,99200.16
2023-02-24T20:38:59.108Z,99198.63
2023-02-24T20:41:27.016Z,99207.91
2023-02-24T20:43:54.623Z,99193.94
2023-02-24T20:46:30.107Z,99194.22
2023-02-24T20:48:59.154Z,99197.34
2023-02-24T20:51:27.079Z,99201.19
2023-02-24T20:53:58.135Z,99205.56
2023-02-24T20:56:29.589Z,99203.50
2023-02-24T20:59:02.035Z,99189.84
2023-02-24T21:01:29.759Z,99205.56
2023-02-24T21:03:56.274Z,99194.22
2023-02-24T21:06:23.409Z,99188.56
2023-02-24T21:08:51.288Z,99188.56
2023-02-24T21:11:17.704Z,99195.78
2023-02-24T21:13:46.762Z,99202.72
2023-02-24T21:16:15.616Z,99205.56
2023-02-24T21:18:44.267Z,99209.16
2023-02-24T21:21:11.328Z,99202.44
2023-02-24T21:23:38.850Z,99190.34
2023-02-24T21:26:06.670Z,99182.88
2023-02-24T21:28:33.665Z,99171.56
2023-02-24T21:31:00.532Z,99200.09
2023-02-24T21:33:27.596Z,99203.50
2023-02-24T21:36:03.684Z,99189.53
2023-02-24T21:38:34.087Z,99188.56
2023-02-24T21:41:05.676Z,99184.19
2023-02-24T21:43:32.369Z,99203.22
2023-02-24T21:46:05.357Z,99208.38
2023-02-24T21:48:35.759Z,99220.69
2023-02-24T21:51:05.471Z,99196.50
2023-02-24T21:53:35.218Z,99194.66
2023-02-24T21:56:16.214Z,99197.75
2023-02-24T21:58:45.679Z,99200.88
2023-02-24T22:01:20.635Z,99207.03
2023-02-24T22:03:47.436Z,99209.88
2023-02-24T22:06:16.574Z,99210.34
2023-02-24T22:08:43.753Z,99215.53
2023-02-24T22:11:11.811Z,99215.53
2023-02-24T22:13:39.204Z,99215.53
2023-02-24T22:16:07.735Z,99202.66
2023-02-24T22:18:34.781Z,99213.19
2023-02-24T22:21:08.565Z,99221.19
2023-02-24T22:23:35.661Z,99217.00
2023-02-24T22:26:04.590Z,99209.00
2023-02-24T22:28:33.303Z,99221.88
2023-02-24T22:31:02.367Z,99220.13
2023-02-24T22:33:30.815Z,99228.63
2023-02-24T22:36:02.469Z,99232.72
2023-02-24T22:38:36.844Z,99223.94
2023-02-24T22:41:07.529Z,99236.81
2023-02-24T22:43:34.644Z,99239.38
2023-02-24T22:46:04.179Z,99245.03
2023-02-24T22:48:32.114Z,99253.25
2023-02-24T22:51:00.995Z,99249.66
2023-02-24T22:53:29.913Z,99258.31
2023-02-24T22:55:56.940Z,99258.63
2023-02-24T22:58:24.270Z,99262.72
2023-02-24T23:00:53.449Z,99268.09
2023-02-24T23:03:25.983Z,99271.59
2023-02-24T23:06:07.196Z,99270.84
2023-02-24T23:08:37.298Z,99275.72
2023-02-24T23:11:06.996Z,99292.72
2023-02-24T23:13:35.375Z,99271.25
2023-02-24T23:16:03.400Z,99263.72
2023-02-24T23:18:31.200Z,99271.41
2023-02-24T23:21:03.196Z,99281.75
2023-02-24T23:23:30.932Z,99278.38
2023-02-24T23:25:57.477Z,99283.06
2023-02-24T23:28:25.213Z,99285.28
2023-02-24T23:30:53.349Z,99285.56
2023-02-24T23:33:20.455Z,99295.06
2023-02-24T23:35:47.087Z,99294.88
2023-02-24T23:38:14.008Z,99302.28
2023-02-24T23:40:51.127Z,99300.09
2023-02-24T23:43:18.199Z,99308.91
2023-02-24T23:45:45.008Z,99307.34
2023-02-24T23:48:13.332Z,99318.66
2023-02-24T23:50:41.415Z,99308.31
2023-02-24T23:53:08.970Z,99309.28
2023-02-24T23:55:38.217Z,99316.47
2023-02-24T23:58:04.935Z,99316.69
